createdAt,value
2022-11-18T00:02:22.435Z,99496.19
2022-11-18T00:04:49.290Z,99494.56
2022-11-18T00:07:16.330Z,99500.56
2022-11-18T00:09:44.480Z,99503.34
2022-11-18T00:12:29.758Z,99510.19
2022-11-18T00:14:56.657Z,99516.81
2022-11-18T00:17:23.427Z,99517.78
2022-11-18T00:19:50.217Z,99514.50
2022-11-18T00:22:16.952Z,99521.88
2022-11-18T00:24:45.116Z,99523.44
2022-11-18T00:27:11.936Z,99523.97
2022-11-18T00:29:38.761Z,99528.78
2022-11-18T00:32:05.889Z,99527.06
2022-11-18T00:34:32.661Z,99531.75
2022-11-18T00:36:59.417Z,99531.50
2022-11-18T00:39:26.257Z,99540.16
2022-11-18T00:42:13.137Z,99531.63
2022-11-18T00:44:42.596Z,99545.94
2022-11-18T00:47:09.422Z,99541.91
2022-11-18T00:49:36.225Z,99545.34
2022-11-18T00:52:03.173Z,99552.53
2022-11-18T00:54:29.961Z,99555.16
2022-11-18T00:56:58.209Z,99557.97
2022-11-18T00:59:25.510Z,99553.28
2022-11-18T01:01:52.455Z,99556.88
2022-11-18T01:04:19.269Z,99557.47
2022-11-18T01:06:45.944Z,99554.72
2022-11-18T01:09:12.767Z,99554.56
2022-11-18T01:11:58.115Z,99563.38
2022-11-18T01:14:26.722Z,99564.47
2022-11-18T01:16:55.036Z,99562.94
2022-11-18T01:19:21.776Z,99572.69
2022-11-18T01:21:48.455Z,99574.59
2022-11-18T01:24:15.674Z,99583.28
2022-11-18T01:26:42.588Z,99583.13
2022-11-18T01:29:09.659Z,99584.13
2022-11-18T01:31:50.144Z,99590.88
2022-11-18T01:34:25.114Z,99594.97
2022-11-18T01:36:52.762Z,99596.03
2022-11-18T01:39:19.650Z,99608.25
2022-11-18T01:41:46.542Z,99607.78
2022-11-18T01:44:46.549Z,99616.19
2022-11-18T01:47:15.591Z,99616.34
2022-11-18T01:49:42.499Z,99619.38
2022-11-18T01:52:09.265Z,99614.56
2022-11-18T01:54:41.122Z,99622.50
2022-11-18T01:57:12.064Z,99614.78
2022-11-18T01:59:42.366Z,99624.66
2022-11-18T02:02:12.318Z,99636.94
2022-11-18T02:04:44.300Z,99631.88
2022-11-18T02:07:12.683Z,99629.59
2022-11-18T02:09:39.858Z,99634.28
2022-11-18T02:12:07.996Z,99633.94
2022-11-18T02:14:38.186Z,99644.38
2022-11-18T02:17:14.525Z,99647.16
2022-11-18T02:20:19.430Z,99654.72
2022-11-18T02:23:11.760Z,99644.34
2022-11-18T02:25:49.052Z,99645.06
2022-11-18T02:28:35.982Z,99652.53
2022-11-18T02:31:10.383Z,99654.44
2022-11-18T02:33:43.144Z,99662.72
2022-11-18T02:36:15.775Z,99671.50
2022-11-18T02:38:45.614Z,99667.16
2022-11-18T02:41:16.753Z,99667.16
2022-11-18T02:43:47.826Z,99675.00
2022-11-18T02:46:21.244Z,99665.47
2022-11-18T02:48:51.292Z,99666.47
2022-11-18T02:51:24.231Z,99668.88
2022-11-18T02:53:52.952Z,99666.69
2022-11-18T02:56:21.508Z,99672.81
2022-11-18T02:58:48.301Z,99673.53
2022-11-18T03:01:20.537Z,99688.56
2022-11-18T03:03:47.873Z,99684.34
2022-11-18T03:06:28.437Z,99687.84
2022-11-18T03:09:03.275Z,99693.63
2022-11-18T03:11:34.094Z,99682.81
2022-11-18T03:14:09.166Z,99689.78
2022-11-18T03:16:41.793Z,99681.56
2022-11-18T03:19:18.156Z,99697.44
2022-11-18T03:21:52.455Z,99689.97
2022-11-18T03:24:25.953Z,99698.75
2022-11-18T03:26:58.050Z,99697.81
2022-11-18T03:29:30.868Z,99710.41
2022-11-18T03:32:06.049Z,99709.91
2022-11-18T03:34:38.007Z,99709.19
2022-11-18T03:37:10.654Z,99717.13
2022-11-18T03:39:41.553Z,99721.69
2022-11-18T03:42:13.128Z,99730.28
2022-11-18T03:44:52.062Z,99735.53
2022-11-18T03:47:25.845Z,99742.44
2022-11-18T03:49:57.521Z,99747.22
2022-11-18T03:52:28.309Z,99747.41
2022-11-18T03:54:59.131Z,99743.09
2022-11-18T03:57:30.663Z,99756.09
2022-11-18T04:00:02.556Z,99754.16
2022-11-18T04:02:34.267Z,99755.34
2022-11-18T04:05:03.282Z,99757.97
2022-11-18T04:07:33.840Z,99767.84
2022-11-18T04:10:06.998Z,99773.34
2022-11-18T04:12:38.470Z,99778.72
2022-11-18T04:15:06.153Z,99770.28
2022-11-18T04:17:34.239Z,99780.53
2022-11-18T04:20:01.046Z,99782.38
2022-11-18T04:22:27.778Z,99780.53
2022-11-18T04:24:54.578Z,99777.91
2022-11-18T04:27:21.299Z,99780.34
2022-11-18T04:29:48.044Z,99783.19
2022-11-18T04:32:14.675Z,99790.63
2022-11-18T04:34:42.767Z,99793.69
2022-11-18T04:37:09.499Z,99796.75
2022-11-18T04:39:36.326Z,99802.25
2022-11-18T04:42:03.161Z,99806.91
2022-11-18T04:44:31.482Z,99801.63
2022-11-18T04:47:00.467Z,99806.44
2022-11-18T04:49:28.219Z,99815.31
2022-11-18T04:51:56.913Z,99807.59
2022-11-18T04:54:25.413Z,99813.44
2022-11-18T04:56:52.556Z,99818.03
2022-11-18T04:59:21.044Z,99816.66
2022-11-18T05:01:48.108Z,99814.25
2022-11-18T05:04:16.638Z,99818.38
2022-11-18T05:06:43.807Z,99812.97
2022-11-18T05:09:12.230Z,99829.56
2022-11-18T05:11:58.058Z,99827.78
2022-11-18T05:14:25.602Z,99829.34
2022-11-18T05:16:52.371Z,99834.34
2022-11-18T05:19:22.158Z,99834.88
2022-11-18T05:21:49.129Z,99841.53
2022-11-18T05:24:17.503Z,99843.63
2022-11-18T05:26:44.603Z,99844.34
2022-11-18T05:29:11.559Z,99859.13
2022-11-18T05:31:38.340Z,99864.19
2022-11-18T05:34:05.322Z,99860.91
2022-11-18T05:36:32.075Z,99866.19
2022-11-18T05:38:59.654Z,99867.03
2022-11-18T05:41:46.203Z,99868.09
2022-11-18T05:44:13.343Z,99880.66
2022-11-18T05:46:40.029Z,99876.72
2022-11-18T05:49:07.737Z,99890.69
2022-11-18T05:51:35.003Z,99893.50
2022-11-18T05:54:04.191Z,99891.06
2022-11-18T05:56:37.335Z,99901.63
2022-11-18T05:59:04.124Z,99895.06
2022-11-18T06:01:36.700Z,99900.53
2022-11-18T06:04:09.147Z,99909.19
2022-11-18T06:06:36.726Z,99908.56
2022-11-18T06:09:06.775Z,99906.13
2022-11-18T06:11:40.605Z,99911.84
2022-11-18T06:14:12.590Z,99906.88
2022-11-18T06:16:45.066Z,99902.91
2022-11-18T06:19:11.901Z,99916.22
2022-11-18T06:21:38.755Z,99922.16
2022-11-18T06:24:07.326Z,99916.00
2022-11-18T06:26:35.864Z,99917.31
2022-11-18T06:29:03.434Z,99921.63
2022-11-18T06:31:31.175Z,99929.13
2022-11-18T06:33:57.876Z,99919.63
2022-11-18T06:36:24.570Z,99939.38
2022-11-18T06:38:51.309Z,99951.38
2022-11-18T06:41:18.490Z,99953.09
2022-11-18T06:43:46.621Z,99954.78
2022-11-18T06:46:34.254Z,99961.03
2022-11-18T06:49:01.926Z,99960.06
2022-11-18T06:51:29.212Z,99966.84
2022-11-18T06:53:56.067Z,99971.28
2022-11-18T06:56:23.691Z,99978.03
2022-11-18T06:58:55.591Z,99972.47
2022-11-18T07:01:24.979Z,99978.69
2022-11-18T07:03:52.196Z,99982.94
2022-11-18T07:06:21.215Z,99983.56
2022-11-18T07:08:48.549Z,99989.47
2022-11-18T07:11:17.595Z,100003.53
2022-11-18T07:13:45.318Z,99994.97
2022-11-18T07:16:14.907Z,100007.97
2022-11-18T07:18:43.008Z,100015.59
2022-11-18T07:21:12.284Z,100022.25
2022-11-18T07:23:39.634Z,100024.47
2022-11-18T07:26:06.732Z,100025.44
2022-11-18T07:28:33.994Z,100028.63
2022-11-18T07:31:03.541Z,100033.19
2022-11-18T07:33:32.813Z,100029.81
2022-11-18T07:36:04.910Z,100037.00
2022-11-18T07:38:31.753Z,100041.69
2022-11-18T07:41:04.353Z,100046.22
2022-11-18T07:43:31.163Z,100046.75
2022-11-18T07:45:58.019Z,100045.25
2022-11-18T07:48:24.765Z,100051.09
2022-11-18T07:50:54.032Z,100057.00
2022-11-18T07:53:20.871Z,100061.22
2022-11-18T07:55:47.687Z,100059.09
2022-11-18T07:58:14.567Z,100065.88
2022-11-18T08:00:42.966Z,100061.09
2022-11-18T08:03:13.747Z,100075.59
2022-11-18T08:05:41.388Z,100060.78
2022-11-18T08:08:10.902Z,100074.00
2022-11-18T08:10:37.986Z,100083.41
2022-11-18T08:13:04.867Z,100086.56
2022-11-18T08:15:31.700Z,100090.91
2022-11-18T08:17:58.460Z,100095.91
2022-11-18T08:20:27.341Z,100097.34
2022-11-18T08:22:54.059Z,100109.41
2022-11-18T08:25:22.204Z,100106.47
2022-11-18T08:27:49.247Z,100112.38
2022-11-18T08:30:16.058Z,100118.31
2022-11-18T08:32:42.838Z,100125.28
2022-11-18T08:35:11.343Z,100119.97
2022-11-18T08:37:38.385Z,100125.59
2022-11-18T08:40:06.369Z,100122.94
2022-11-18T08:42:34.809Z,100125.59
2022-11-18T08:45:01.633Z,100131.38
2022-11-18T08:47:28.387Z,100134.78
2022-11-18T08:49:55.183Z,100138.66
2022-11-18T08:52:22.107Z,100137.94
2022-11-18T08:54:48.978Z,100133.91
2022-11-18T08:57:15.829Z,100138.34
2022-11-18T08:59:44.165Z,100136.31
2022-11-18T09:02:13.981Z,100138.25
2022-11-18T09:04:40.771Z,100140.66
2022-11-18T09:07:07.909Z,100145.53
2022-11-18T09:09:34.853Z,100145.84
2022-11-18T09:12:01.611Z,100155.38
2022-11-18T09:17:16.776Z,100155.81
2022-11-18T09:19:47.983Z,100161.13
2022-11-18T09:22:15.133Z,100166.94
2022-11-18T09:24:43.714Z,100168.41
2022-11-18T09:27:16.349Z,100167.56
2022-11-18T09:29:44.023Z,100176.06
2022-11-18T09:32:10.806Z,100175.97
2022-11-18T09:34:39.097Z,100183.91
2022-11-18T09:37:06.967Z,100180.50
2022-11-18T09:39:35.328Z,100179.78
2022-11-18T09:42:13.960Z,100185.59
2022-11-18T09:45:07.378Z,100181.38
2022-11-18T09:47:36.923Z,100189.31
2022-11-18T09:50:33.946Z,100195.25
2022-11-18T09:53:09.129Z,100197.19
2022-11-18T09:55:38.824Z,100206.34
2022-11-18T09:58:05.706Z,100210.16
2022-11-18T10:00:32.562Z,100213.94
2022-11-18T10:03:01.943Z,100213.25
2022-11-18T10:05:32.925Z,100223.22
2022-11-18T10:08:06.675Z,100221.16
2022-11-18T10:10:42.829Z,100220.19
2022-11-18T10:13:20.081Z,100228.72
2022-11-18T10:15:57.479Z,100226.41
2022-11-18T10:18:58.532Z,100225.19
2022-11-18T10:21:28.096Z,100228.69
2022-11-18T10:24:00.351Z,100237.22
2022-11-18T10:26:35.087Z,100240.78
2022-11-18T10:29:02.481Z,100238.53
2022-11-18T10:31:29.308Z,100243.38
2022-11-18T10:33:59.544Z,100246.84
2022-11-18T10:36:30.393Z,100246.09
2022-11-18T10:39:09.782Z,100251.75
2022-11-18T10:41:43.538Z,100260.34
2022-11-18T10:44:35.822Z,100259.28
2022-11-18T10:47:25.240Z,100265.81
2022-11-18T10:49:53.127Z,100261.94
2022-11-18T10:52:21.993Z,100271.34
2022-11-18T10:55:07.816Z,100265.38
2022-11-18T10:57:36.420Z,100262.94
2022-11-18T11:00:04.581Z,100267.91
2022-11-18T11:02:33.111Z,100276.84
2022-11-18T11:05:02.611Z,100281.06
2022-11-18T11:07:33.180Z,100282.78
2022-11-18T11:10:20.763Z,100283.72
2022-11-18T11:12:52.651Z,100288.91
2022-11-18T11:15:35.251Z,100291.00
2022-11-18T11:18:23.610Z,100289.19
2022-11-18T11:20:52.018Z,100290.75
2022-11-18T11:23:23.625Z,100293.75
2022-11-18T11:28:53.744Z,100289.06
2022-11-18T11:31:26.275Z,100295.06
2022-11-18T11:34:00.033Z,100297.03
2022-11-18T11:36:37.389Z,100303.34
2022-11-18T11:39:37.188Z,100298.13
2022-11-18T11:42:15.303Z,100300.19
2022-11-18T11:44:58.829Z,100313.50
2022-11-18T11:47:50.184Z,100300.66
2022-11-18T11:50:22.740Z,100301.75
2022-11-18T11:53:02.670Z,100298.75
2022-11-18T11:55:36.088Z,100305.88
2022-11-18T11:58:21.620Z,100308.47
2022-11-18T12:00:58.919Z,100312.69
2022-11-18T12:03:47.318Z,100310.38
2022-11-18T12:06:17.269Z,100312.41
2022-11-18T12:08:56.422Z,100309.53
2022-11-18T12:11:34.238Z,100313.31
2022-11-18T12:14:05.493Z,100312.41
2022-11-18T12:16:41.109Z,100317.13
2022-11-18T12:19:13.346Z,100315.03
2022-11-18T12:21:54.428Z,100318.91
2022-11-18T12:24:31.181Z,100325.28
2022-11-18T12:27:01.638Z,100321.13
2022-11-18T12:29:37.776Z,100328.31
2022-11-18T12:32:25.555Z,100329.13
2022-11-18T12:34:58.702Z,100336.38
2022-11-18T12:37:56.637Z,100337.00
2022-11-18T12:40:39.301Z,100341.22
2022-11-18T12:43:45.340Z,100338.84
2022-11-18T12:46:49.491Z,100338.00
2022-11-18T12:49:53.882Z,100347.53
2022-11-18T12:52:46.551Z,100348.16
2022-11-18T12:55:18.001Z,100348.75
2022-11-18T12:57:44.921Z,100352.75
2022-11-18T13:00:30.697Z,100347.28
2022-11-18T13:02:59.795Z,100355.41
2022-11-18T13:05:27.468Z,100357.31
2022-11-18T13:08:15.979Z,100356.81
2022-11-18T13:10:53.188Z,100359.19
2022-11-18T13:13:28.992Z,100369.25
2022-11-18T13:16:21.284Z,100363.09
2022-11-18T13:18:49.552Z,100371.06
2022-11-18T13:21:42.286Z,100362.25
2022-11-18T13:24:12.172Z,100362.25
2022-11-18T13:26:40.954Z,100372.00
2022-11-18T13:29:26.919Z,100365.66
2022-11-18T13:32:08.407Z,100376.91
2022-11-18T13:34:41.257Z,100374.72
2022-11-18T13:37:17.424Z,100387.16
2022-11-18T13:39:46.450Z,100389.19
2022-11-18T13:42:20.068Z,100388.47
2022-11-18T13:44:52.943Z,100383.09
2022-11-18T13:47:27.904Z,100393.00
2022-11-18T13:50:13.621Z,100395.13
2022-11-18T13:52:43.594Z,100397.31
2022-11-18T13:55:19.142Z,100400.19
2022-11-18T13:57:49.999Z,100396.19
2022-11-18T14:00:23.220Z,100398.22
2022-11-18T14:02:57.045Z,100406.84
2022-11-18T14:05:25.060Z,100406.78
2022-11-18T14:08:02.860Z,100409.25
2022-11-18T14:10:39.284Z,100403.31
2022-11-18T14:13:18.025Z,100416.06
2022-11-18T14:15:45.517Z,100413.63
2022-11-18T14:18:27.637Z,100419.72
2022-11-18T14:20:55.786Z,100417.59
2022-11-18T14:23:29.031Z,100423.00
2022-11-18T14:25:57.229Z,100416.13
2022-11-18T14:28:27.383Z,100435.09
2022-11-18T14:31:04.112Z,100440.53
2022-11-18T14:33:33.550Z,100433.94
2022-11-18T14:36:03.180Z,100438.63
2022-11-18T14:38:52.081Z,100435.84
2022-11-18T14:41:45.100Z,100429.50
2022-11-18T14:44:13.753Z,100451.34
2022-11-18T14:46:42.405Z,100450.19
2022-11-18T14:49:14.811Z,100457.13
2022-11-18T14:51:41.832Z,100462.94
2022-11-18T14:54:12.861Z,100471.19
2022-11-18T14:56:40.090Z,100476.19
2022-11-18T14:59:07.222Z,100474.13
2022-11-18T15:01:34.335Z,100478.78
2022-11-18T15:04:01.450Z,100476.06
2022-11-18T15:06:29.794Z,100479.38
2022-11-18T15:08:56.900Z,100477.03
2022-11-18T15:11:23.891Z,100491.13
2022-11-18T15:13:50.745Z,100487.72
2022-11-18T15:16:19.740Z,100496.72
2022-11-18T15:18:48.704Z,100497.59
2022-11-18T15:21:16.289Z,100501.56
2022-11-18T15:23:45.064Z,100512.91
2022-11-18T15:26:19.143Z,100504.50
2022-11-18T15:28:46.415Z,100508.31
2022-11-18T15:31:13.198Z,100495.16
2022-11-18T15:33:40.326Z,100498.09
2022-11-18T15:36:12.155Z,100515.44
2022-11-18T15:38:38.992Z,100515.63
2022-11-18T15:41:07.442Z,100520.38
2022-11-18T15:43:34.497Z,100523.94
2022-11-18T15:46:01.198Z,100522.34
2022-11-18T15:48:28.262Z,100523.22
2022-11-18T15:50:55.229Z,100525.75
2022-11-18T15:53:21.943Z,100528.59
2022-11-18T15:55:48.974Z,100529.16
2022-11-18T15:58:17.477Z,100536.63
2022-11-18T16:00:45.146Z,100543.78
2022-11-18T16:03:12.191Z,100550.06
2022-11-18T16:05:39.001Z,100546.56
2022-11-18T16:08:05.761Z,100560.34
2022-11-18T16:10:51.212Z,100548.16
2022-11-18T16:13:22.080Z,100558.19
2022-11-18T16:15:48.997Z,100555.91
2022-11-18T16:18:18.172Z,100557.03
2022-11-18T16:20:44.921Z,100560.63
2022-11-18T16:23:11.807Z,100560.34
2022-11-18T16:25:43.646Z,100565.72
2022-11-18T16:28:10.479Z,100572.69
2022-11-18T16:30:57.323Z,100580.56
2022-11-18T16:33:24.137Z,100574.78
2022-11-18T16:35:51.117Z,100577.44
2022-11-18T16:38:18.096Z,100582.78
2022-11-18T16:40:47.089Z,100592.50
2022-11-18T16:43:13.918Z,100597.31
2022-11-18T16:45:50.484Z,100595.72
2022-11-18T16:48:17.504Z,100592.50
2022-11-18T16:50:44.313Z,100604.44
2022-11-18T16:53:11.394Z,100602.09
2022-11-18T16:55:38.291Z,100611.88
2022-11-18T16:58:05.326Z,100618.31
2022-11-18T17:00:51.655Z,100625.47
2022-11-18T17:03:20.478Z,100625.81
2022-11-18T17:05:47.312Z,100633.91
2022-11-18T17:08:14.271Z,100630.25
2022-11-18T17:10:40.979Z,100638.09
2022-11-18T17:13:07.719Z,100642.59
2022-11-18T17:15:35.653Z,100643.56
2022-11-18T17:18:02.384Z,100638.81
2022-11-18T17:20:30.693Z,100654.50
2022-11-18T17:22:57.422Z,100653.63
2022-11-18T17:25:24.230Z,100659.78
2022-11-18T17:27:50.967Z,100660.03
2022-11-18T17:30:17.890Z,100662.16
2022-11-18T17:32:44.609Z,100663.34
2022-11-18T17:35:11.413Z,100658.06
2022-11-18T17:37:39.518Z,100667.84
2022-11-18T17:40:07.859Z,100663.69
2022-11-18T17:42:34.622Z,100656.38
2022-11-18T17:45:01.351Z,100672.72
2022-11-18T17:47:28.183Z,100676.41
2022-11-18T17:49:54.967Z,100681.69
2022-11-18T17:52:21.794Z,100678.41
2022-11-18T17:54:49.942Z,100684.81
2022-11-18T17:57:16.770Z,100686.13
2022-11-18T17:59:43.572Z,100697.72
2022-11-18T18:02:12.016Z,100699.41
2022-11-18T18:04:38.963Z,100705.72
2022-11-18T18:07:05.782Z,100711.94
2022-11-18T18:09:32.584Z,100717.47
2022-11-18T18:12:20.914Z,100721.19
2022-11-18T18:14:47.693Z,100721.69
2022-11-18T18:17:14.654Z,100730.84
2022-11-18T18:19:41.498Z,100735.84
2022-11-18T18:22:08.342Z,100744.69
2022-11-18T18:24:35.037Z,100749.81
2022-11-18T18:27:03.389Z,100748.25
2022-11-18T18:29:30.471Z,100745.22
2022-11-18T18:31:57.238Z,100741.28
2022-11-18T18:34:23.982Z,100757.88
2022-11-18T18:36:50.765Z,100754.78
2022-11-18T18:39:17.537Z,100763.75
2022-11-18T18:41:44.570Z,100766.00
2022-11-18T18:44:18.253Z,100766.91
2022-11-18T18:46:45.309Z,100772.56
2022-11-18T18:49:14.281Z,100781.56
2022-11-18T18:51:43.249Z,100774.81
2022-11-18T18:54:12.322Z,100773.25
2022-11-18T18:56:39.699Z,100778.66
2022-11-18T18:59:07.314Z,100790.22
2022-11-18T19:01:35.836Z,100780.44
2022-11-18T19:04:05.304Z,100780.44
2022-11-18T19:06:56.920Z,100783.84
2022-11-18T19:09:21.437Z,100787.78
2022-11-18T19:12:07.095Z,100791.41
2022-11-18T19:14:35.198Z,100778.38
2022-11-18T19:17:10.006Z,100776.81
2022-11-18T19:19:55.679Z,100791.63
2022-11-18T19:22:22.571Z,100793.41
2022-11-18T19:24:50.734Z,100805.84
2022-11-18T19:27:18.201Z,100800.59
2022-11-18T19:29:45.016Z,100798.03
2022-11-18T19:32:13.616Z,100809.34
2022-11-18T19:34:40.448Z,100817.09
2022-11-18T19:37:07.407Z,100819.03
2022-11-18T19:39:35.301Z,100809.50
2022-11-18T19:42:02.303Z,100828.56
2022-11-18T19:44:29.137Z,100832.06
2022-11-18T19:46:55.993Z,100834.63
2022-11-18T19:49:24.257Z,100838.41
2022-11-18T19:51:50.973Z,100849.31
2022-11-18T19:54:17.738Z,100847.78
2022-11-18T19:56:44.501Z,100847.91
2022-11-18T19:59:11.699Z,100846.19
2022-11-18T20:01:38.924Z,100857.44
2022-11-18T20:04:05.877Z,100858.44
2022-11-18T20:06:35.732Z,100855.09
2022-11-18T20:09:03.374Z,100862.41
2022-11-18T20:11:30.547Z,100859.91
2022-11-18T20:13:57.377Z,100862.66
2022-11-18T20:16:25.375Z,100861.16
2022-11-18T20:18:53.620Z,100867.34
2022-11-18T20:21:22.234Z,100876.88
2022-11-18T20:23:51.750Z,100874.25
2022-11-18T20:26:20.302Z,100868.19
2022-11-18T20:28:54.473Z,100876.22
2022-11-18T20:31:24.317Z,100872.94
2022-11-18T20:33:53.943Z,100884.50
2022-11-18T20:36:22.836Z,100883.88
2022-11-18T20:38:52.406Z,100886.28
2022-11-18T20:41:21.089Z,100891.53
2022-11-18T20:43:49.714Z,100904.06
2022-11-18T20:46:20.706Z,100906.69
2022-11-18T20:48:48.826Z,100903.31
2022-11-18T20:51:17.335Z,100912.34
2022-11-18T20:53:44.772Z,100921.91
2022-11-18T20:56:14.773Z,100918.81
2022-11-18T20:58:41.332Z,100919.63
2022-11-18T21:01:09.562Z,100916.25
2022-11-18T21:03:37.574Z,100925.97
2022-11-18T21:06:13.898Z,100919.31
2022-11-18T21:08:42.409Z,100932.84
2022-11-18T21:11:11.502Z,100930.25
2022-11-18T21:13:59.777Z,100920.78
2022-11-18T21:16:27.616Z,100926.84
2022-11-18T21:18:54.403Z,100925.00
2022-11-18T21:21:39.759Z,100936.38
2022-11-18T21:24:07.432Z,100932.84
2022-11-18T21:26:36.152Z,100934.53
2022-11-18T21:29:06.534Z,100939.00
2022-11-18T21:31:33.790Z,100939.19
2022-11-18T21:34:00.814Z,100943.47
2022-11-18T21:36:28.852Z,100943.47
2022-11-18T21:38:57.022Z,100940.91
2022-11-18T21:41:23.940Z,100947.31
2022-11-18T21:44:05.190Z,100954.34
2022-11-18T21:46:35.259Z,100950.81
2022-11-18T21:49:02.900Z,100954.25
2022-11-18T21:51:32.133Z,100952.66
2022-11-18T21:53:58.996Z,100959.72
2022-11-18T21:56:29.465Z,100959.59
2022-11-18T21:58:57.530Z,100961.31
2022-11-18T22:01:28.487Z,100959.59
2022-11-18T22:03:58.655Z,100970.84
2022-11-18T22:06:27.004Z,100964.03
2022-11-18T22:08:54.046Z,100976.13
2022-11-18T22:11:22.531Z,100972.69
2022-11-18T22:13:50.359Z,100983.34
2022-11-18T22:16:19.426Z,100991.25
2022-11-18T22:18:51.540Z,100984.25
2022-11-18T22:21:23.646Z,100978.19
2022-11-18T22:23:50.437Z,100987.06
2022-11-18T22:26:19.056Z,100978.56
2022-11-18T22:28:46.995Z,100992.50
2022-11-18T22:31:15.505Z,100987.31
2022-11-18T22:33:42.848Z,100976.84
2022-11-18T22:36:12.954Z,100993.38
2022-11-18T22:38:41.789Z,100979.50
2022-11-18T22:41:31.118Z,100991.75
2022-11-18T22:44:00.397Z,101001.28
2022-11-18T22:46:30.941Z,100995.28
2022-11-18T22:48:58.297Z,100996.84
2022-11-18T22:51:25.588Z,101000.22
2022-11-18T22:54:09.777Z,101014.94
2022-11-18T22:56:40.582Z,101008.22
2022-11-18T22:59:07.399Z,101014.38
2022-11-18T23:01:34.114Z,101017.78
2022-11-18T23:04:00.973Z,101029.16
2022-11-18T23:06:28.018Z,101024.81
2022-11-18T23:08:56.255Z,101036.19
2022-11-18T23:11:42.059Z,101029.00
2022-11-18T23:14:10.272Z,101037.84
2022-11-18T23:16:39.115Z,101046.94
2022-11-18T23:19:08.012Z,101046.16
2022-11-18T23:21:35.265Z,101059.28
2022-11-18T23:24:04.252Z,101067.06
2022-11-18T23:26:32.138Z,101058.44
2022-11-18T23:28:59.108Z,101068.72
2022-11-18T23:31:27.362Z,101070.59
2022-11-18T23:33:55.124Z,101087.28
2022-11-18T23:36:22.053Z,101078.44
2022-11-18T23:38:49.006Z,101081.13
2022-11-18T23:41:17.956Z,101074.25
2022-11-18T23:43:48.856Z,101089.28
2022-11-18T23:46:17.528Z,101084.88
2022-11-18T23:48:45.150Z,101094.59
2022-11-18T23:51:13.559Z,101099.09
2022-11-18T23:53:40.992Z,101095.69
2022-11-18T23:56:12.657Z,101100.13
2022-11-18T23:58:43.056Z,101107.09
